Time;durP1;ratioP1;P1;durP2;ratioP2;P2;SDS_P1;SDS_P2;PMS_P1;PMS_P2;Temp;Humidity;BMP_temperature;BMP_pressure;BME280_temperature;BME280_humidity;BME280_pressure;Samples;Min_cycle;Max_cycle;Signal;HPM_P1;HPM_P2
2022/01/21 00:02:36;;;;;;;5.63;1.43;;;0.10;99.90;;;;;;10014709;29;20250;-78
2022/01/21 00:07:58;;;;;;;5.30;1.60;;;0.10;99.90;;;;;;10015721;29;20530;-79
2022/01/21 00:13:33;;;;;;;8.17;2.60;;;0.20;99.90;;;;;;10044232;29;20213;-78
2022/01/21 00:30:28;;;;;;;2.03;0.80;;;0.20;99.90;;;;;;9990577;29;20532;-77
2022/01/21 00:35:50;;;;;;;3.30;1.27;;;0.20;99.90;;;;;;10006265;29;20199;-78
2022/01/21 00:41:17;;;;;;;4.87;1.33;;;0.30;99.90;;;;;;9955248;29;20209;-78
2022/01/21 00:46:39;;;;;;;4.20;1.20;;;0.20;99.90;;;;;;9967071;29;20223;-79
2022/01/21 00:52:01;;;;;;;22.70;5.60;;;0.20;99.90;;;;;;9938714;29;20213;-79
2022/01/21 00:57:24;;;;;;;13.23;2.73;;;0.20;99.90;;;;;;9972654;29;20268;-77
2022/01/21 01:02:46;;;;;;;3.60;1.40;;;0.20;99.90;;;;;;9985838;29;20229;-78
2022/01/21 01:08:08;;;;;;;4.57;1.10;;;0.20;99.90;;;;;;9955534;29;20240;-79
2022/01/21 01:36:16;;;;;;;6.60;1.40;;;0.30;99.90;;;;;;9927208;30;20312;-78
2022/01/21 01:41:48;;;;;;;4.50;1.20;;;0.30;99.90;;;;;;9900497;30;20211;-78
2022/01/21 01:52:51;;;;;;;3.63;1.47;;;0.30;99.90;;;;;;9912678;30;20211;-78
2022/01/21 01:58:14;;;;;;;3.17;1.20;;;0.30;99.90;;;;;;9911853;29;20204;-78
2022/01/21 02:03:37;;;;;;;3.13;1.20;;;0.30;99.90;;;;;;9912848;30;20218;-78
2022/01/21 02:09:00;;;;;;;3.00;1.10;;;0.40;99.90;;;;;;9907414;30;20238;-77
2022/01/21 02:14:28;;;;;;;6.27;1.50;;;0.40;99.90;;;;;;9885618;30;20203;-77
2022/01/21 02:25:30;;;;;;;3.53;1.37;;;0.40;99.90;;;;;;9897819;30;20225;-78
2022/01/21 02:31:01;;;;;;;4.17;1.30;;;0.40;99.90;;;;;;9895724;30;20413;-77
2022/01/21 02:36:23;;;;;;;4.77;1.10;;;0.40;99.90;;;;;;9935075;30;20282;-78
2022/01/21 02:41:45;;;;;;;4.70;1.10;;;0.40;99.90;;;;;;9876494;30;20514;-79
2022/01/21 02:47:08;;;;;;;4.63;1.30;;;0.40;99.90;;;;;;9896812;30;20234;-78
2022/01/21 02:52:52;;;;;;;5.10;1.17;;;0.40;99.90;;;;;;9896372;30;20228;-78
2022/01/21 02:58:14;;;;;;;2.77;1.40;;;0.40;99.90;;;;;;9919507;29;20225;-77
2022/01/21 03:03:36;;;;;;;5.17;1.23;;;0.30;99.90;;;;;;9924825;29;20505;-80
2022/01/21 03:08:59;;;;;;;3.77;1.50;;;0.30;99.90;;;;;;9905546;30;20246;-77
2022/01/21 03:14:21;;;;;;;2.10;0.90;;;0.30;99.90;;;;;;9896574;30;20232;-79
2022/01/21 03:19:43;;;;;;;3.27;1.37;;;0.30;99.90;;;;;;9895729;30;20215;-78
2022/01/21 03:25:06;;;;;;;5.77;1.67;;;0.30;99.90;;;;;;9895591;30;20243;-78
2022/01/21 03:30:29;;;;;;;7.73;1.03;;;0.30;99.90;;;;;;9905353;30;20592;-78
2022/01/21 03:35:59;;;;;;;6.73;1.70;;;0.30;99.90;;;;;;9919326;30;20246;-77
2022/01/21 03:41:22;;;;;;;3.53;1.40;;;0.30;99.90;;;;;;9904541;30;20506;-76
2022/01/21 03:46:45;;;;;;;4.80;1.10;;;0.20;99.90;;;;;;9892074;30;20204;-77
2022/01/21 03:52:08;;;;;;;2.63;0.93;;;0.30;99.90;;;;;;9931501;30;20216;-78
2022/01/21 03:57:29;;;;;;;3.23;1.20;;;0.20;99.90;;;;;;9897664;29;20283;-78
2022/01/21 04:02:52;;;;;;;2.90;0.70;;;0.30;99.90;;;;;;9941369;29;20204;-79
2022/01/21 04:08:18;;;;;;;3.80;2.50;;;0.20;99.90;;;;;;9918588;30;20445;-78
2022/01/21 04:14:08;;;;;;;5.93;1.63;;;0.20;99.90;;;;;;9883951;30;20204;-79
2022/01/21 04:19:31;;;;;;;12.00;5.47;;;0.20;99.90;;;;;;9881050;30;20205;-77
2022/01/21 04:25:01;;;;;;;14.00;5.70;;;0.30;99.90;;;;;;10126005;24;20585;-78
2022/01/21 04:30:23;;;;;;;13.20;4.53;;;0.20;99.90;;;;;;10042818;29;20430;-77
2022/01/21 04:35:46;;;;;;;11.03;4.97;;;0.20;99.90;;;;;;10029936;29;20199;-78
2022/01/21 04:52:25;;;;;;;9.23;3.43;;;0.20;99.90;;;;;;9993547;24;20263;-76
2022/01/21 05:03:51;;;;;;;9.07;2.20;;;0.10;99.90;;;;;;10421080;24;20246;-78
2022/01/21 05:15:40;;;;;;;3.97;1.60;;;0.10;99.90;;;;;;11192703;24;20264;-79
2022/01/21 05:21:40;;;;;;;14.40;3.97;;;0.10;99.90;;;;;;10011621;24;20350;-79
2022/01/21 05:27:10;;;;;;;4.43;1.60;;;0.10;99.90;;;;;;10024609;29;20319;-79
2022/01/21 05:32:42;;;;;;;9.17;3.17;;;0.10;99.90;;;;;;9997467;29;20203;-79
2022/01/21 05:38:09;;;;;;;8.40;1.93;;;0.00;99.90;;;;;;9978955;29;20227;-79
2022/01/21 05:44:13;;;;;;;8.63;2.93;;;0.00;99.90;;;;;;9978185;29;20519;-79
2022/01/21 05:49:47;;;;;;;7.07;2.70;;;0.00;99.90;;;;;;9990666;29;20485;-79
2022/01/21 05:55:28;;;;;;;5.53;1.93;;;0.00;99.90;;;;;;10003648;29;20488;-78
2022/01/21 06:01:07;;;;;;;6.70;2.40;;;0.00;99.90;;;;;;9997012;24;20243;-78
2022/01/21 06:06:30;;;;;;;11.47;3.67;;;0.00;99.90;;;;;;10020732;29;20276;-77
2022/01/21 06:11:52;;;;;;;7.93;3.53;;;0.00;99.90;;;;;;10024722;29;20525;-78
2022/01/21 06:17:14;;;;;;;4.77;2.00;;;0.00;99.90;;;;;;10039988;29;20258;-77
2022/01/21 06:22:37;;;;;;;7.93;2.30;;;0.00;99.90;;;;;;10039921;29;20197;-77
2022/01/21 06:27:58;;;;;;;5.97;1.47;;;0.00;99.90;;;;;;10039368;29;20583;-77
2022/01/21 06:33:21;;;;;;;4.13;2.80;;;0.10;99.90;;;;;;9999146;29;20203;-78
2022/01/21 06:38:44;;;;;;;7.50;3.00;;;0.00;99.90;;;;;;10014848;29;20506;-78
2022/01/21 06:44:06;;;;;;;9.17;2.33;;;0.00;99.90;;;;;;9975885;29;20205;-77
2022/01/21 06:49:29;;;;;;;40.67;23.30;;;-0.10;99.90;;;;;;10005454;29;20429;-78
2022/01/21 06:54:53;;;;;;;50.30;21.27;;;-0.10;99.90;;;;;;10007631;29;20227;-78
2022/01/21 07:00:19;;;;;;;51.97;22.73;;;-0.10;99.90;;;;;;10050123;29;20248;-78
2022/01/21 07:05:46;;;;;;;66.53;23.73;;;-0.10;99.90;;;;;;10054929;29;20202;-78
2022/01/21 07:11:09;;;;;;;58.80;25.70;;;-0.10;99.90;;;;;;10032553;29;20451;-78
2022/01/21 07:16:31;;;;;;;37.13;22.00;;;0.00;99.90;;;;;;10044689;29;20207;-78
2022/01/21 07:21:54;;;;;;;19.57;7.27;;;0.00;99.90;;;;;;10055409;29;20205;-78
2022/01/21 07:27:16;;;;;;;17.03;8.73;;;-0.10;99.90;;;;;;10068662;24;20241;-78
2022/01/21 07:32:39;;;;;;;10.73;3.87;;;-0.10;99.90;;;;;;10006820;29;20196;-78
2022/01/21 07:38:02;;;;;;;9.07;3.27;;;-0.10;99.90;;;;;;9994040;29;20205;-78
2022/01/21 07:43:24;;;;;;;30.50;18.77;;;0.00;99.90;;;;;;9993290;29;20209;-78
2022/01/21 07:48:47;;;;;;;6.43;2.40;;;0.00;99.90;;;;;;10024641;29;20302;-78
2022/01/21 07:54:11;;;;;;;6.93;2.67;;;0.00;99.90;;;;;;10015573;29;20231;-78
2022/01/21 07:59:33;;;;;;;72.33;23.77;;;0.00;99.90;;;;;;10011269;29;20286;-78
2022/01/21 08:04:56;;;;;;;75.37;24.53;;;0.00;99.90;;;;;;10044815;29;20291;-78
2022/01/21 08:10:19;;;;;;;61.37;18.60;;;0.10;99.90;;;;;;9990788;29;20310;-79
2022/01/21 08:15:44;;;;;;;94.63;29.87;;;0.10;99.90;;;;;;10009065;29;20381;-78
2022/01/21 08:21:07;;;;;;;69.00;29.80;;;0.20;99.90;;;;;;10022884;29;20219;-79
2022/01/21 08:26:29;;;;;;;15.07;5.47;;;0.20;99.90;;;;;;10036075;29;20296;-79
2022/01/21 08:31:51;;;;;;;22.33;9.07;;;0.30;99.90;;;;;;10078973;24;20265;-78
2022/01/21 08:37:13;;;;;;;12.70;6.23;;;0.40;99.90;;;;;;10169800;24;20231;-78
2022/01/21 08:42:36;;;;;;;24.40;8.27;;;0.40;99.90;;;;;;10038283;29;20250;-82
2022/01/21 08:47:58;;;;;;;17.23;5.60;;;0.30;99.90;;;;;;10023180;29;20291;-79
2022/01/21 08:53:36;;;;;;;10.37;4.27;;;0.40;99.90;;;;;;10036803;29;20211;-78
2022/01/21 08:58:58;;;;;;;8.57;4.13;;;0.40;99.90;;;;;;10025559;29;20197;-77
2022/01/21 09:04:20;;;;;;;12.17;3.53;;;0.50;99.90;;;;;;9999546;29;20204;-80
2022/01/21 09:09:42;;;;;;;8.77;3.43;;;0.50;99.90;;;;;;10034141;29;20259;-80
2022/01/21 09:15:07;;;;;;;9.47;3.70;;;0.50;99.90;;;;;;10008889;29;20199;-80
2022/01/21 09:20:34;;;;;;;9.73;4.30;;;0.50;99.90;;;;;;10023710;29;20281;-79
2022/01/21 09:25:56;;;;;;;8.27;3.37;;;0.50;99.90;;;;;;10020476;29;20238;-79
2022/01/21 09:31:19;;;;;;;7.87;3.00;;;0.50;99.90;;;;;;10006294;29;20320;-80
2022/01/21 09:36:42;;;;;;;6.87;2.07;;;0.60;99.90;;;;;;10006128;29;20517;-78
2022/01/21 09:42:06;;;;;;;12.33;4.30;;;0.70;99.90;;;;;;9993488;29;20765;-80
2022/01/21 09:47:31;;;;;;;6.03;1.93;;;0.70;99.90;;;;;;10008377;29;20512;-79
2022/01/21 09:52:54;;;;;;;10.40;3.50;;;0.70;99.90;;;;;;10021745;29;20220;-81
2022/01/21 09:58:18;;;;;;;10.40;3.97;;;0.80;99.90;;;;;;10011324;29;20283;-84
2022/01/21 10:03:43;;;;;;;5.67;2.17;;;0.80;99.90;;;;;;9987313;29;20230;-79
2022/01/21 10:09:07;;;;;;;5.80;2.27;;;0.80;99.90;;;;;;10020846;29;20240;-80
2022/01/21 10:14:30;;;;;;;7.90;2.20;;;0.80;99.90;;;;;;10016874;29;20226;-82
2022/01/21 10:19:52;;;;;;;8.27;3.30;;;0.80;99.90;;;;;;9994907;29;20687;-81
2022/01/21 10:25:16;;;;;;;12.00;3.00;;;0.80;99.90;;;;;;10024270;29;20214;-79
2022/01/21 10:30:39;;;;;;;6.63;2.70;;;0.90;99.90;;;;;;10026367;29;20244;-80
2022/01/21 10:36:30;;;;;;;6.23;2.93;;;0.90;99.90;;;;;;10013029;29;20205;-79
2022/01/21 10:41:52;;;;;;;9.23;3.60;;;1.00;99.90;;;;;;9993783;29;20261;-81
2022/01/21 10:47:14;;;;;;;11.97;3.27;;;0.90;99.90;;;;;;9961087;29;20214;-82
2022/01/21 10:52:39;;;;;;;8.97;2.43;;;0.80;99.90;;;;;;9995077;29;20210;-79
2022/01/21 10:58:11;;;;;;;7.30;2.13;;;0.70;99.90;;;;;;10019455;29;20508;-79
2022/01/21 11:03:36;;;;;;;5.83;2.33;;;0.80;99.90;;;;;;10037452;29;20279;-80
2022/01/21 11:09:18;;;;;;;7.70;3.00;;;0.70;99.90;;;;;;10037181;29;20241;-78
2022/01/21 11:15:04;;;;;;;8.20;2.10;;;0.70;99.90;;;;;;10021643;29;20209;-86
2022/01/21 11:20:37;;;;;;;10.53;4.30;;;0.70;99.90;;;;;;10013032;29;20219;-79
2022/01/21 11:26:03;;;;;;;9.07;4.00;;;0.70;99.90;;;;;;9982595;29;20236;-81
2022/01/21 11:31:28;;;;;;;22.33;7.17;;;0.80;99.90;;;;;;9960782;29;20241;-80
2022/01/21 11:36:59;;;;;;;6.67;2.43;;;0.90;99.90;;;;;;10015623;29;20280;-79
2022/01/21 11:42:23;;;;;;;9.33;2.57;;;1.00;99.90;;;;;;10012428;29;20205;-84
2022/01/21 11:48:12;;;;;;;13.90;4.60;;;1.00;99.90;;;;;;9994606;29;20208;-80
2022/01/21 11:53:45;;;;;;;6.27;2.83;;;0.90;99.90;;;;;;9998135;29;20199;-81
2022/01/21 11:59:20;;;;;;;8.03;2.80;;;0.80;99.90;;;;;;10024069;29;20220;-79
2022/01/21 12:05:03;;;;;;;9.30;3.77;;;0.80;99.90;;;;;;10007696;29;20209;-80
2022/01/21 12:10:33;;;;;;;15.77;4.17;;;0.70;99.90;;;;;;10033506;29;20242;-79
2022/01/21 12:16:18;;;;;;;17.07;8.47;;;0.80;99.90;;;;;;9987322;29;20258;-82
2022/01/21 12:21:44;;;;;;;42.10;17.37;;;0.90;99.90;;;;;;10000564;29;20282;-81
2022/01/21 12:27:09;;;;;;;12.30;5.93;;;1.00;99.90;;;;;;9989114;29;20204;-79
2022/01/21 12:32:51;;;;;;;15.93;4.80;;;1.10;99.90;;;;;;9999271;29;20302;-80
2022/01/21 12:44:03;;;;;;;39.57;12.53;;;1.30;99.90;;;;;;10007979;29;20214;-78
2022/01/21 12:49:27;;;;;;;169.03;49.63;;;1.50;99.90;;;;;;10023975;29;20304;-80
2022/01/21 13:00:59;;;;;;;22.40;9.70;;;1.70;99.90;;;;;;9909525;29;20228;-79
2022/01/21 13:06:41;;;;;;;22.23;9.63;;;1.50;99.90;;;;;;9897528;29;20221;-79
2022/01/21 13:12:09;;;;;;;41.30;18.30;;;1.30;99.90;;;;;;9918892;30;20554;-80
2022/01/21 13:17:32;;;;;;;26.23;10.90;;;1.20;99.90;;;;;;9901690;29;20244;-82
2022/01/21 13:22:54;;;;;;;11.57;4.57;;;1.00;99.90;;;;;;9892350;30;20246;-79
2022/01/21 13:28:16;;;;;;;6.03;2.60;;;0.90;99.90;;;;;;9926200;29;20430;-79
2022/01/21 13:33:38;;;;;;;8.70;2.83;;;0.90;99.90;;;;;;9920787;30;20255;-79
2022/01/21 13:39:15;;;;;;;8.53;2.60;;;0.90;99.90;;;;;;10035197;29;20273;-79
2022/01/21 13:44:49;;;;;;;7.90;2.63;;;1.00;99.90;;;;;;10002550;29;20208;-79
2022/01/21 13:50:17;;;;;;;9.97;3.53;;;1.00;99.90;;;;;;9982179;29;20545;-79
2022/01/21 13:55:48;;;;;;;17.33;5.57;;;0.90;99.90;;;;;;10011086;29;20206;-79
2022/01/21 14:01:15;;;;;;;15.23;5.93;;;1.00;99.90;;;;;;9995307;29;20229;-79
2022/01/21 14:06:37;;;;;;;14.13;5.73;;;0.90;99.90;;;;;;10025080;29;20194;-79
2022/01/21 14:12:00;;;;;;;9.53;4.30;;;0.80;99.90;;;;;;9991164;29;20235;-79
2022/01/21 14:17:25;;;;;;;14.07;5.63;;;0.60;99.90;;;;;;10000064;29;20279;-79
2022/01/21 14:22:47;;;;;;;7.50;3.33;;;0.60;99.90;;;;;;10014713;29;20371;-79
2022/01/21 14:28:11;;;;;;;10.73;3.87;;;0.60;99.90;;;;;;10027491;29;20426;-83
2022/01/21 14:33:42;;;;;;;8.77;2.37;;;0.50;99.90;;;;;;10043522;29;20279;-80
2022/01/21 14:39:21;;;;;;;8.23;3.20;;;0.50;99.90;;;;;;10029809;29;20247;-78
2022/01/21 14:44:48;;;;;;;12.93;4.87;;;0.40;99.90;;;;;;10003321;29;20206;-79
2022/01/21 14:50:21;;;;;;;18.73;5.73;;;0.50;99.90;;;;;;10016216;29;20438;-78
2022/01/21 14:55:50;;;;;;;7.97;3.00;;;0.40;99.90;;;;;;10029833;29;20461;-78
2022/01/21 15:01:11;;;;;;;11.67;4.30;;;0.30;99.90;;;;;;10006242;29;20407;-78
2022/01/21 15:06:35;;;;;;;8.83;3.93;;;0.30;99.90;;;;;;10036768;29;20199;-78
2022/01/21 15:12:10;;;;;;;11.50;3.33;;;0.20;99.90;;;;;;10041136;29;20267;-81
2022/01/21 15:17:32;;;;;;;8.13;2.87;;;0.20;99.90;;;;;;10011384;29;20211;-81
2022/01/21 15:22:54;;;;;;;7.70;2.70;;;0.20;99.90;;;;;;10022748;29;20208;-80
2022/01/21 15:28:16;;;;;;;13.07;4.10;;;0.10;99.90;;;;;;9962409;29;20235;-80
2022/01/21 15:33:38;;;;;;;8.60;3.60;;;0.00;99.90;;;;;;10013373;29;20206;-79
2022/01/21 15:39:01;;;;;;;15.70;5.97;;;-0.10;99.90;;;;;;10028562;29;20249;-78
2022/01/21 15:44:24;;;;;;;9.90;3.17;;;-0.20;99.90;;;;;;10012621;29;20204;-80
2022/01/21 15:49:46;;;;;;;11.87;4.83;;;-0.20;99.90;;;;;;9973641;29;20307;-79
2022/01/21 15:55:22;;;;;;;12.53;3.60;;;-0.30;99.90;;;;;;10015688;29;20199;-80
2022/01/21 16:00:44;;;;;;;12.80;4.10;;;-0.30;99.90;;;;;;10007528;29;20223;-80
2022/01/21 16:06:11;;;;;;;7.57;3.60;;;-0.40;99.90;;;;;;10011596;29;20282;-84
2022/01/21 16:11:33;;;;;;;10.57;4.10;;;-0.40;99.90;;;;;;10003566;29;20240;-77
2022/01/21 16:16:55;;;;;;;24.80;8.45;;;-0.40;99.90;;;;;;10013123;29;20480;-79
2022/01/21 16:22:18;;;;;;;23.37;8.30;;;-0.40;99.90;;;;;;10024900;29;20259;-79
2022/01/21 16:27:39;;;;;;;20.00;7.93;;;-0.40;99.90;;;;;;10024665;29;20274;-80
2022/01/21 16:33:01;;;;;;;11.77;5.00;;;-0.40;99.90;;;;;;10024499;29;20304;-80
2022/01/21 16:38:23;;;;;;;13.83;4.83;;;-0.30;99.90;;;;;;10027415;29;20678;-78
2022/01/21 16:43:49;;;;;;;16.73;6.67;;;-0.30;99.90;;;;;;10024145;29;20524;-78
2022/01/21 16:49:11;;;;;;;18.17;8.37;;;-0.30;99.90;;;;;;10041275;29;20229;-78
2022/01/21 16:54:33;;;;;;;18.93;7.47;;;-0.40;99.90;;;;;;10014137;29;20221;-78
2022/01/21 16:59:55;;;;;;;29.33;12.03;;;-0.30;99.90;;;;;;10011699;29;20224;-79
2022/01/21 17:05:18;;;;;;;30.57;11.57;;;-0.20;99.90;;;;;;10044838;29;20203;-79
2022/01/21 17:10:41;;;;;;;18.50;7.23;;;-0.10;99.90;;;;;;10013634;29;20252;-79
2022/01/21 17:16:03;;;;;;;21.37;6.37;;;0.10;99.90;;;;;;10041782;29;20220;-79
2022/01/21 17:21:34;;;;;;;21.10;9.37;;;0.10;99.90;;;;;;10013529;29;20221;-81
2022/01/21 17:26:56;;;;;;;9.57;3.90;;;0.20;99.90;;;;;;10042380;29;20208;-79
2022/01/21 17:32:19;;;;;;;24.97;11.13;;;0.20;99.90;;;;;;10041859;29;20531;-79
2022/01/21 17:37:41;;;;;;;110.13;49.70;;;0.20;99.90;;;;;;10025531;29;20252;-78
2022/01/21 17:43:04;;;;;;;29.17;13.97;;;0.20;99.90;;;;;;10025420;29;20517;-80
2022/01/21 17:48:26;;;;;;;60.10;27.53;;;0.30;99.90;;;;;;10041689;29;20203;-79
2022/01/21 17:53:48;;;;;;;25.13;11.70;;;0.20;99.90;;;;;;10025763;29;20232;-78
2022/01/21 17:59:13;;;;;;;26.93;8.77;;;0.20;99.90;;;;;;10013122;29;20247;-79
2022/01/21 18:04:38;;;;;;;20.80;9.13;;;0.10;99.90;;;;;;10005002;29;20199;-79
2022/01/21 18:10:08;;;;;;;15.27;6.67;;;0.10;99.90;;;;;;10020826;29;20227;-80
2022/01/21 18:15:31;;;;;;;12.77;6.07;;;0.10;99.90;;;;;;10041624;29;20235;-80
2022/01/21 18:20:53;;;;;;;13.87;6.03;;;0.10;99.90;;;;;;10024932;29;20404;-79
2022/01/21 18:26:15;;;;;;;15.70;7.27;;;0.10;99.90;;;;;;9999491;29;20203;-79
2022/01/21 18:31:38;;;;;;;11.97;5.47;;;0.10;99.90;;;;;;10027229;29;20233;-81
2022/01/21 18:37:00;;;;;;;9.40;4.50;;;0.10;99.90;;;;;;10040169;29;20248;-81
2022/01/21 18:42:30;;;;;;;12.37;6.37;;;0.10;99.90;;;;;;10040437;29;20432;-79
2022/01/21 18:47:52;;;;;;;10.60;4.53;;;0.10;99.90;;;;;;10006124;29;20204;-80
2022/01/21 18:53:18;;;;;;;8.10;4.60;;;0.10;99.90;;;;;;10046163;29;20241;-80
2022/01/21 18:58:48;;;;;;;12.40;4.27;;;0.20;99.90;;;;;;10018537;29;20245;-79
2022/01/21 19:04:13;;;;;;;16.53;7.60;;;0.10;99.90;;;;;;10004170;29;20268;-79
2022/01/21 19:09:36;;;;;;;15.70;7.80;;;0.20;99.90;;;;;;10023162;29;20255;-80
2022/01/21 19:14:58;;;;;;;17.53;6.33;;;0.10;99.90;;;;;;10030715;29;20285;-81
2022/01/21 19:20:22;;;;;;;14.70;6.60;;;0.00;99.90;;;;;;10030576;29;20207;-79
2022/01/21 19:31:09;;;;;;;10.33;5.23;;;-0.10;99.90;;;;;;10046551;29;20286;-78
2022/01/21 19:36:31;;;;;;;14.07;5.03;;;-0.20;99.90;;;;;;10034423;29;20246;-78
2022/01/21 19:41:53;;;;;;;16.73;7.20;;;-0.30;99.90;;;;;;10020466;29;20249;-78
2022/01/21 19:47:21;;;;;;;31.03;10.20;;;-0.40;99.90;;;;;;9996671;29;20199;-78
2022/01/21 19:52:43;;;;;;;43.43;14.17;;;-0.60;99.90;;;;;;10016653;29;20245;-81
2022/01/21 20:09:18;;;;;;;78.20;24.90;;;-0.70;99.90;;;;;;10015287;29;20221;-79
2022/01/21 20:14:51;;;;;;;64.37;24.00;;;-0.70;99.90;;;;;;10043933;29;20209;-79
2022/01/21 20:20:14;;;;;;;62.37;23.13;;;-0.70;99.90;;;;;;9999280;29;20208;-80
2022/01/21 20:25:36;;;;;;;53.80;19.40;;;-0.70;99.90;;;;;;10006825;29;20220;-79
2022/01/21 20:30:58;;;;;;;44.60;16.17;;;-0.70;99.90;;;;;;9977443;29;20238;-80
2022/01/21 20:36:30;;;;;;;35.67;13.13;;;-0.70;99.90;;;;;;10005533;29;20202;-78
2022/01/21 20:42:06;;;;;;;30.80;8.67;;;-0.70;99.90;;;;;;10025927;29;20294;-80
2022/01/21 20:47:28;;;;;;;18.50;6.63;;;-0.80;99.90;;;;;;10027464;29;20203;-78
2022/01/21 20:52:51;;;;;;;18.47;6.67;;;-0.80;99.90;;;;;;10014285;29;20237;-80
2022/01/21 20:58:18;;;;;;;12.53;5.47;;;-0.80;99.90;;;;;;10002433;29;20257;-79
2022/01/21 21:03:40;;;;;;;12.30;5.03;;;-0.80;99.90;;;;;;10023102;29;20206;-79
2022/01/21 21:09:09;;;;;;;12.60;4.80;;;-0.80;99.90;;;;;;10025716;29;20211;-79
2022/01/21 21:14:39;;;;;;;6.83;3.67;;;-0.70;99.90;;;;;;10013767;29;20404;-79
2022/01/21 21:25:52;;;;;;;11.80;5.60;;;-0.70;99.90;;;;;;10042533;29;20503;-80
2022/01/21 21:31:43;;;;;;;8.77;3.77;;;-0.70;99.90;;;;;;10025811;29;20233;-79
2022/01/21 21:42:23;;;;;;;4.73;2.30;;;-0.70;99.90;;;;;;10025815;29;20212;-80
2022/01/21 22:23:07;;;;;;;7.50;2.50;;;-0.80;99.90;;;;;;9822117;30;20285;-80
2022/01/21 23:01:52;;;;;;;5.53;2.50;;;-1.00;99.90;;;;;;9896348;30;20222;-80
2022/01/21 23:07:18;;;;;;;9.33;3.07;;;-1.00;99.90;;;;;;9931062;30;20253;-79
2022/01/21 23:12:40;;;;;;;8.73;3.90;;;-1.00;99.90;;;;;;9918143;30;20250;-79
2022/01/21 23:18:09;;;;;;;10.80;3.60;;;-0.90;99.90;;;;;;9900712;30;20222;-79
2022/01/21 23:23:31;;;;;;;9.53;3.10;;;-0.90;99.90;;;;;;9880592;30;20217;-80
2022/01/21 23:34:32;;;;;;;8.13;2.83;;;-0.70;99.90;;;;;;9877364;30;20362;-78
2022/01/21 23:45:20;;;;;;;8.73;3.07;;;-0.80;99.90;;;;;;10007858;29;20365;-79
2022/01/21 23:50:50;;;;;;;7.53;2.60;;;-0.80;99.90;;;;;;10007736;29;20235;-78
2022/01/21 23:56:27;;;;;;;7.20;3.23;;;-0.80;99.90;;;;;;9978699;29;20205;-80
